createdAt,value
2022-10-17T00:00:52.367Z,13.72
2022-10-17T00:03:19.457Z,13.73
2022-10-17T00:05:51.064Z,13.51
2022-10-17T00:08:19.221Z,13.72
2022-10-17T00:10:46.573Z,13.09
2022-10-17T00:13:15.569Z,13.37
2022-10-17T00:15:44.700Z,13.66
2022-10-17T00:18:11.405Z,13.00
2022-10-17T00:20:38.079Z,13.60
2022-10-17T00:23:06.993Z,13.60
2022-10-17T00:25:33.761Z,13.59
2022-10-17T00:28:00.473Z,13.59
2022-10-17T00:30:27.191Z,13.30
2022-10-17T00:32:53.832Z,13.56
2022-10-17T00:35:20.694Z,13.38
2022-10-17T00:37:48.459Z,13.55
2022-10-17T00:40:17.471Z,13.00
2022-10-17T00:42:47.010Z,13.48
2022-10-17T00:45:23.695Z,13.48
2022-10-17T00:48:01.550Z,11.89
2022-10-17T00:50:30.950Z,13.17
2022-10-17T00:53:01.544Z,11.10
2022-10-17T00:55:32.068Z,13.36
2022-10-17T00:58:00.910Z,12.27
2022-10-17T01:00:27.572Z,12.74
2022-10-17T01:02:54.381Z,12.63
2022-10-17T01:05:24.693Z,13.33
2022-10-17T01:07:55.355Z,13.31
2022-10-17T01:10:28.088Z,12.37
2022-10-17T01:13:21.027Z,13.28
2022-10-17T01:16:16.420Z,13.27
2022-10-17T01:19:18.859Z,13.29
2022-10-17T01:21:54.808Z,12.53
2022-10-17T01:24:56.904Z,13.29
2022-10-17T01:27:27.139Z,13.27
2022-10-17T01:30:22.288Z,13.27
2022-10-17T01:32:55.382Z,12.35
2022-10-17T01:35:39.953Z,12.94
2022-10-17T01:38:21.786Z,12.19
2022-10-17T01:41:01.421Z,13.04
2022-10-17T01:43:51.625Z,13.05
2022-10-17T01:46:32.954Z,12.02
2022-10-17T01:49:03.358Z,13.00
2022-10-17T01:51:43.988Z,11.85
2022-10-17T01:54:28.589Z,12.13
2022-10-17T01:57:01.949Z,12.02
2022-10-17T01:59:43.889Z,12.86
2022-10-17T02:02:14.744Z,12.78
2022-10-17T02:04:46.147Z,11.75
2022-10-17T02:07:13.359Z,12.41
2022-10-17T02:09:40.638Z,12.69
2022-10-17T02:12:31.714Z,12.70
2022-10-17T02:15:10.479Z,12.71
2022-10-17T02:18:14.983Z,12.71
2022-10-17T02:21:08.940Z,12.68
2022-10-17T02:24:00.874Z,12.27
2022-10-17T02:26:55.318Z,11.21
2022-10-17T02:29:29.994Z,12.64
2022-10-17T02:32:05.887Z,11.43
2022-10-17T02:34:48.427Z,12.59
2022-10-17T02:37:17.300Z,11.48
2022-10-17T02:39:44.210Z,12.52
2022-10-17T02:42:15.599Z,12.55
2022-10-17T02:44:44.189Z,12.53
2022-10-17T02:47:14.014Z,12.53
2022-10-17T02:49:47.891Z,12.52
2022-10-17T02:52:32.938Z,12.50
2022-10-17T02:55:21.494Z,12.46
2022-10-17T02:58:12.575Z,11.55
2022-10-17T03:00:40.944Z,11.93
2022-10-17T03:03:26.109Z,12.40
2022-10-17T03:05:55.187Z,11.99
2022-10-17T03:08:24.768Z,11.11
2022-10-17T03:10:55.714Z,11.63
2022-10-17T03:13:23.029Z,12.32
2022-10-17T03:15:50.100Z,12.26
2022-10-17T03:18:16.899Z,11.64
2022-10-17T03:20:44.979Z,11.22
2022-10-17T03:23:14.067Z,11.43
2022-10-17T03:25:40.959Z,12.26
2022-10-17T03:28:08.398Z,12.26
2022-10-17T03:30:35.148Z,12.25
2022-10-17T03:33:02.560Z,11.41
2022-10-17T03:35:29.289Z,12.27
2022-10-17T03:37:56.796Z,12.23
2022-10-17T03:40:25.770Z,12.23
2022-10-17T03:42:55.184Z,12.11
2022-10-17T03:45:21.917Z,12.25
2022-10-17T03:47:51.346Z,11.99
2022-10-17T03:50:23.138Z,12.22
2022-10-17T03:52:49.984Z,10.83
2022-10-17T03:55:19.448Z,11.06
2022-10-17T03:57:46.004Z,12.21
2022-10-17T04:00:17.167Z,12.00
2022-10-17T04:02:54.702Z,12.20
2022-10-17T04:05:23.855Z,11.01
2022-10-17T04:07:53.122Z,12.14
2022-10-17T04:10:27.834Z,11.52
2022-10-17T04:12:56.766Z,11.38
2022-10-17T04:15:23.682Z,11.90
2022-10-17T04:17:50.417Z,11.59
2022-10-17T04:20:19.482Z,12.16
2022-10-17T04:22:46.246Z,8.84
2022-10-17T04:25:13.748Z,12.10
2022-10-17T04:27:43.922Z,12.14
2022-10-17T04:30:13.187Z,11.32
2022-10-17T04:32:41.255Z,11.62
2022-10-17T04:35:21.884Z,11.95
2022-10-17T04:37:57.353Z,11.58
2022-10-17T04:40:27.360Z,12.16
2022-10-17T04:42:55.234Z,10.71
2022-10-17T04:45:31.279Z,12.12
2022-10-17T04:48:04.693Z,11.11
2022-10-17T04:50:31.478Z,12.11
2022-10-17T04:53:27.152Z,11.56
2022-10-17T04:55:57.171Z,11.17
2022-10-17T04:58:30.811Z,11.21
2022-10-17T05:00:57.609Z,12.11
2022-10-17T05:03:28.194Z,11.23
2022-10-17T05:05:54.972Z,11.83
2022-10-17T05:08:27.108Z,10.28
2022-10-17T05:10:54.022Z,11.52
2022-10-17T05:13:25.710Z,12.14
2022-10-17T05:15:54.755Z,12.08
2022-10-17T05:18:24.503Z,11.55
2022-10-17T05:20:54.395Z,11.36
2022-10-17T05:23:21.625Z,12.15
2022-10-17T05:25:54.886Z,11.26
2022-10-17T05:28:24.227Z,11.93
2022-10-17T05:30:52.145Z,12.23
2022-10-17T05:33:18.886Z,12.24
2022-10-17T05:35:45.613Z,11.19
2022-10-17T05:38:15.825Z,11.07
2022-10-17T05:40:44.873Z,12.30
2022-10-17T05:43:16.801Z,11.87
2022-10-17T05:45:47.629Z,9.56
2022-10-17T05:48:19.024Z,10.86
2022-10-17T05:50:50.253Z,12.30
2022-10-17T05:53:17.344Z,11.95
2022-10-17T05:55:55.954Z,11.36
2022-10-17T05:58:45.499Z,12.10
2022-10-17T06:01:15.186Z,10.73
2022-10-17T06:03:44.189Z,11.81
2022-10-17T06:06:14.543Z,11.31
2022-10-17T06:08:44.068Z,12.44
2022-10-17T06:11:17.157Z,11.87
2022-10-17T06:13:43.760Z,12.52
2022-10-17T06:16:19.345Z,12.56
2022-10-17T06:18:46.106Z,12.63
2022-10-17T06:21:17.965Z,12.17
2022-10-17T06:23:50.910Z,10.73
2022-10-17T06:26:24.967Z,12.42
2022-10-17T06:28:52.195Z,12.30
2022-10-17T06:31:18.983Z,12.45
2022-10-17T06:33:46.009Z,12.42
2022-10-17T06:36:14.402Z,12.37
2022-10-17T06:38:44.451Z,12.91
2022-10-17T06:41:20.997Z,11.32
2022-10-17T06:43:51.147Z,11.81
2022-10-17T06:46:45.104Z,12.73
2022-10-17T06:49:17.943Z,12.70
2022-10-17T06:51:50.706Z,13.49
2022-10-17T06:54:24.133Z,13.54
2022-10-17T06:57:09.413Z,13.28
2022-10-17T06:59:59.297Z,13.47
2022-10-17T07:02:35.795Z,13.58
2022-10-17T07:05:02.644Z,12.69
2022-10-17T07:07:32.620Z,13.00
2022-10-17T07:09:59.795Z,14.00
2022-10-17T07:12:26.604Z,12.91
2022-10-17T07:14:53.317Z,14.14
2022-10-17T07:17:22.258Z,13.44
2022-10-17T07:19:51.558Z,14.27
2022-10-17T07:22:20.946Z,13.93
2022-10-17T07:24:52.052Z,14.08
2022-10-17T07:27:26.361Z,13.24
2022-10-17T07:29:55.486Z,13.41
2022-10-17T07:32:55.561Z,13.98
2022-10-17T07:35:24.705Z,11.93
2022-10-17T07:37:51.543Z,14.53
2022-10-17T07:40:24.826Z,13.56
2022-10-17T07:42:56.382Z,13.67
2022-10-17T07:45:27.163Z,14.14
2022-10-17T07:47:57.962Z,14.99
2022-10-17T07:50:25.432Z,13.46
2022-10-17T07:52:52.275Z,14.47
2022-10-17T07:55:19.015Z,14.96
2022-10-17T07:57:50.562Z,13.15
2022-10-17T08:00:17.253Z,15.35
2022-10-17T08:02:46.172Z,14.22
2022-10-17T08:05:16.251Z,15.46
2022-10-17T08:07:43.022Z,14.80
2022-10-17T08:10:16.210Z,14.55
2022-10-17T08:12:47.106Z,14.86
2022-10-17T08:15:13.815Z,15.09
2022-10-17T08:17:40.497Z,15.64
2022-10-17T08:20:07.751Z,15.65
2022-10-17T08:22:36.990Z,14.76
2022-10-17T08:25:03.625Z,16.10
2022-10-17T08:27:35.766Z,15.91
2022-10-17T08:30:07.501Z,15.42
2022-10-17T08:32:36.588Z,15.72
2022-10-17T08:35:03.371Z,15.75
2022-10-17T08:37:34.784Z,15.25
2022-10-17T08:40:01.493Z,16.35
2022-10-17T08:42:54.348Z,15.97
2022-10-17T08:45:34.708Z,16.65
2022-10-17T08:48:06.216Z,16.00
2022-10-17T08:50:35.628Z,16.85
2022-10-17T08:53:20.548Z,16.82
2022-10-17T08:55:52.690Z,16.46
2022-10-17T08:58:29.424Z,16.24
2022-10-17T09:01:11.923Z,16.55
2022-10-17T09:04:26.833Z,16.44
2022-10-17T09:06:59.757Z,17.12
2022-10-17T09:09:47.700Z,17.32
2022-10-17T09:12:14.330Z,17.48
2022-10-17T09:15:05.938Z,17.60
2022-10-17T09:17:43.956Z,17.74
2022-10-17T09:20:18.035Z,17.86
2022-10-17T09:23:05.370Z,18.05
2022-10-17T09:25:49.763Z,18.15
2022-10-17T09:28:27.893Z,18.45
2022-10-17T09:31:03.548Z,18.62
2022-10-17T09:33:58.954Z,17.93
2022-10-17T09:36:35.729Z,18.43
2022-10-17T09:39:17.683Z,16.82
2022-10-17T09:41:53.271Z,18.54
2022-10-17T09:44:22.943Z,18.89
2022-10-17T09:47:13.233Z,19.08
2022-10-17T09:49:42.201Z,19.23
2022-10-17T09:52:30.291Z,19.45
2022-10-17T09:54:59.473Z,19.51
2022-10-17T09:57:31.934Z,18.89
2022-10-17T10:00:04.431Z,19.18
2022-10-17T10:02:41.235Z,19.18
2022-10-17T10:05:21.112Z,18.64
2022-10-17T10:08:14.542Z,19.55
2022-10-17T10:10:43.323Z,16.77
2022-10-17T10:13:12.887Z,19.60
2022-10-17T10:15:41.717Z,19.86
2022-10-17T10:18:26.706Z,20.03
2022-10-17T10:21:15.045Z,20.10
2022-10-17T10:23:46.725Z,20.20
2022-10-17T10:26:23.914Z,20.33
2022-10-17T10:28:54.242Z,19.22
2022-10-17T10:31:30.293Z,20.76
2022-10-17T10:33:59.702Z,20.46
2022-10-17T10:36:26.465Z,19.59
2022-10-17T10:39:01.253Z,21.56
2022-10-17T10:41:46.880Z,21.89
2022-10-17T10:44:15.510Z,21.75
2022-10-17T10:46:42.201Z,21.35
2022-10-17T10:49:29.659Z,22.34
2022-10-17T10:51:58.672Z,22.36
2022-10-17T10:54:28.782Z,22.87
2022-10-17T10:57:00.946Z,22.95
2022-10-17T10:59:39.528Z,23.38
2022-10-17T11:02:38.530Z,23.11
2022-10-17T11:05:05.591Z,23.90
2022-10-17T11:07:38.056Z,22.90
2022-10-17T11:10:35.477Z,24.16
2022-10-17T11:13:13.634Z,23.76
2022-10-17T11:15:51.566Z,24.48
2022-10-17T11:18:36.007Z,24.44
2022-10-17T11:21:26.584Z,24.65
2022-10-17T11:24:06.979Z,23.22
2022-10-17T11:26:43.414Z,24.92
2022-10-17T11:29:12.084Z,25.05
2022-10-17T11:31:51.034Z,25.51
2022-10-17T11:34:26.485Z,25.50
2022-10-17T11:37:15.438Z,25.05
2022-10-17T11:40:24.489Z,25.48
2022-10-17T11:42:59.802Z,26.01
2022-10-17T11:45:31.193Z,25.18
2022-10-17T11:48:14.462Z,26.21
2022-10-17T11:54:09.114Z,25.42
2022-10-17T11:57:14.631Z,26.71
2022-10-17T11:59:56.677Z,27.19
2022-10-17T12:02:40.807Z,27.80
2022-10-17T12:05:21.955Z,27.95
2022-10-17T12:07:59.615Z,27.84
2022-10-17T12:10:45.327Z,28.11
2022-10-17T12:13:36.299Z,28.45
2022-10-17T12:16:35.458Z,28.65
2022-10-17T12:19:06.341Z,29.42
2022-10-17T12:22:10.412Z,30.24
2022-10-17T12:24:38.240Z,30.62
2022-10-17T12:27:39.592Z,30.79
2022-10-17T12:30:14.919Z,31.10
2022-10-17T12:33:06.062Z,30.74
2022-10-17T12:35:38.315Z,30.21
2022-10-17T12:38:18.989Z,29.55
2022-10-17T12:40:49.104Z,30.05
2022-10-17T12:43:15.876Z,30.40
2022-10-17T12:45:54.012Z,29.54
2022-10-17T12:48:44.411Z,31.55
2022-10-17T12:51:37.402Z,32.08
2022-10-17T12:54:12.916Z,32.37
2022-10-17T12:56:47.183Z,32.73
2022-10-17T12:59:16.556Z,32.19
2022-10-17T13:01:51.423Z,32.25
2022-10-17T13:04:18.572Z,31.33
2022-10-17T13:06:55.121Z,32.37
2022-10-17T13:09:33.196Z,31.84
2022-10-17T13:12:05.081Z,32.44
2022-10-17T13:14:33.661Z,32.16
2022-10-17T13:17:13.096Z,31.79
2022-10-17T13:19:48.576Z,30.90
2022-10-17T13:22:21.390Z,30.74
2022-10-17T13:24:49.469Z,30.24
2022-10-17T13:27:29.176Z,30.64
2022-10-17T13:30:00.504Z,30.79
2022-10-17T13:32:38.202Z,30.47
2022-10-17T13:35:07.337Z,30.74
2022-10-17T13:37:35.098Z,30.61
2022-10-17T13:40:16.268Z,30.44
2022-10-17T13:42:55.392Z,30.82
2022-10-17T13:45:40.316Z,30.53
2022-10-17T13:48:18.361Z,30.82
2022-10-17T13:50:48.523Z,31.34
2022-10-17T13:53:25.679Z,31.91
2022-10-17T13:56:15.680Z,31.71
2022-10-17T13:58:48.793Z,32.26
2022-10-17T14:01:20.842Z,31.80
2022-10-17T14:04:02.134Z,32.94
2022-10-17T14:06:35.384Z,32.77
2022-10-17T14:09:05.037Z,32.74
2022-10-17T14:11:43.014Z,31.48
2022-10-17T14:14:34.549Z,32.24
2022-10-17T14:17:23.272Z,32.55
2022-10-17T14:20:26.600Z,32.21
2022-10-17T14:23:04.408Z,33.36
2022-10-17T14:25:40.813Z,33.31
2022-10-17T14:28:09.349Z,33.67
2022-10-17T14:30:56.812Z,32.28
2022-10-17T14:33:29.739Z,31.69
2022-10-17T14:36:00.343Z,31.96
2022-10-17T14:38:28.303Z,31.95
2022-10-17T14:41:42.509Z,31.45
2022-10-17T14:44:19.010Z,29.33
2022-10-17T14:46:50.902Z,29.18
2022-10-17T14:49:38.623Z,27.40
2022-10-17T14:52:18.634Z,27.38
2022-10-17T14:54:50.193Z,27.00
2022-10-17T14:57:19.359Z,26.38
2022-10-17T14:59:55.947Z,24.73
2022-10-17T15:02:27.759Z,25.21
2022-10-17T15:04:57.617Z,25.05
2022-10-17T15:07:26.545Z,23.60
2022-10-17T15:09:53.964Z,23.99
2022-10-17T15:12:23.221Z,24.26
2022-10-17T15:14:50.733Z,24.09
2022-10-17T15:17:23.696Z,23.59
2022-10-17T15:19:50.911Z,23.93
2022-10-17T15:22:20.115Z,23.26
2022-10-17T15:24:46.983Z,23.85
2022-10-17T15:27:20.593Z,24.15
2022-10-17T15:29:48.128Z,24.11
2022-10-17T15:32:15.237Z,23.71
2022-10-17T15:34:42.684Z,24.50
2022-10-17T15:37:16.748Z,23.45
2022-10-17T15:39:43.452Z,22.37
2022-10-17T15:42:12.022Z,23.68
2022-10-17T15:44:38.733Z,23.43
2022-10-17T15:47:05.963Z,23.22
2022-10-17T15:49:33.991Z,22.28
2022-10-17T15:52:00.678Z,21.95
2022-10-17T15:54:29.946Z,22.01
2022-10-17T15:56:58.110Z,21.94
2022-10-17T15:59:33.991Z,22.40
2022-10-17T16:02:00.681Z,22.15
2022-10-17T16:04:30.696Z,22.05
2022-10-17T16:06:57.433Z,20.86
2022-10-17T16:09:26.325Z,21.83
2022-10-17T16:11:55.523Z,21.41
2022-10-17T16:14:24.476Z,21.24
2022-10-17T16:16:51.438Z,21.45
2022-10-17T16:19:18.204Z,21.36
2022-10-17T16:21:47.611Z,20.42
2022-10-17T16:24:14.277Z,20.88
2022-10-17T16:26:41.132Z,21.08
2022-10-17T16:29:09.384Z,21.02
2022-10-17T16:31:42.540Z,20.99
2022-10-17T16:34:13.839Z,20.96
2022-10-17T16:36:43.022Z,20.75
2022-10-17T16:39:09.804Z,20.84
2022-10-17T16:41:38.335Z,20.77
2022-10-17T16:44:08.812Z,20.28
2022-10-17T16:46:37.653Z,20.63
2022-10-17T16:49:07.845Z,20.53
2022-10-17T16:51:35.934Z,19.86
2022-10-17T16:54:04.935Z,20.02
2022-10-17T16:56:32.991Z,19.12
2022-10-17T16:59:00.713Z,19.98
2022-10-17T17:01:29.343Z,19.92
2022-10-17T17:04:04.734Z,18.67
2022-10-17T17:06:31.655Z,19.60
2022-10-17T17:08:58.477Z,19.57
2022-10-17T17:11:28.784Z,18.59
2022-10-17T17:13:57.133Z,19.58
2022-10-17T17:16:30.258Z,19.55
2022-10-17T17:19:02.231Z,19.51
2022-10-17T17:21:28.992Z,18.76
2022-10-17T17:24:02.262Z,19.33
2022-10-17T17:26:31.483Z,19.27
2022-10-17T17:28:59.315Z,19.19
2022-10-17T17:31:32.355Z,19.15
2022-10-17T17:34:02.101Z,19.08
2022-10-17T17:36:36.475Z,18.97
2022-10-17T17:39:05.909Z,18.96
2022-10-17T17:41:32.748Z,18.11
2022-10-17T17:44:00.881Z,17.85
2022-10-17T17:46:27.670Z,17.92
2022-10-17T17:48:59.163Z,18.68
2022-10-17T17:51:29.433Z,18.57
2022-10-17T17:53:58.857Z,17.58
2022-10-17T17:56:27.726Z,17.90
2022-10-17T17:59:00.882Z,18.28
2022-10-17T18:01:36.800Z,18.29
2022-10-17T18:04:04.663Z,18.16
2022-10-17T18:06:31.399Z,18.08
2022-10-17T18:08:59.119Z,17.97
2022-10-17T18:11:27.188Z,17.63
2022-10-17T18:14:00.354Z,17.87
2022-10-17T18:16:28.095Z,17.78
2022-10-17T18:18:59.461Z,13.65
2022-10-17T18:21:28.434Z,16.55
2022-10-17T18:23:57.618Z,17.34
2022-10-17T18:26:24.224Z,17.62
2022-10-17T18:28:51.169Z,17.00
2022-10-17T18:31:24.105Z,16.98
2022-10-17T18:33:55.069Z,17.37
2022-10-17T18:36:26.118Z,16.73
2022-10-17T18:38:56.534Z,16.39
2022-10-17T18:41:27.014Z,17.26
2022-10-17T18:43:57.507Z,17.20
2022-10-17T18:46:28.451Z,16.63
2022-10-17T18:48:55.829Z,15.54
2022-10-17T18:51:24.107Z,17.14
2022-10-17T18:53:55.514Z,16.21
2022-10-17T18:56:23.236Z,17.09
2022-10-17T18:58:50.321Z,15.92
2022-10-17T19:01:23.343Z,17.00
2022-10-17T19:03:53.905Z,16.45
2022-10-17T19:06:22.839Z,16.58
2022-10-17T19:08:51.855Z,16.93
2022-10-17T19:11:21.638Z,16.92
2022-10-17T19:13:51.390Z,16.68
2022-10-17T19:16:18.002Z,16.86
2022-10-17T19:18:54.653Z,15.68
2022-10-17T19:21:24.473Z,16.27
2022-10-17T19:23:59.661Z,16.38
2022-10-17T19:26:28.588Z,16.66
2022-10-17T19:28:57.825Z,16.64
2022-10-17T19:31:27.249Z,16.04
2022-10-17T19:33:57.721Z,16.56
2022-10-17T19:36:32.530Z,15.89
2022-10-17T19:39:05.432Z,15.74
2022-10-17T19:41:37.178Z,16.43
2022-10-17T19:44:03.932Z,16.36
2022-10-17T19:46:34.144Z,15.09
2022-10-17T19:49:01.404Z,16.11
2022-10-17T19:51:29.117Z,15.99
2022-10-17T19:54:00.203Z,15.98
2022-10-17T19:56:28.906Z,16.15
2022-10-17T19:58:57.005Z,15.77
2022-10-17T20:01:26.079Z,16.09
2022-10-17T20:03:58.388Z,15.48
2022-10-17T20:06:25.204Z,15.46
2022-10-17T20:08:54.324Z,15.75
2022-10-17T20:11:23.466Z,16.01
2022-10-17T20:13:51.091Z,15.97
2022-10-17T20:16:25.957Z,15.91
2022-10-17T20:18:55.189Z,15.29
2022-10-17T20:21:23.984Z,15.84
2022-10-17T20:23:51.096Z,15.80
2022-10-17T20:29:12.003Z,14.80
2022-10-17T20:31:39.956Z,15.68
2022-10-17T20:34:06.854Z,15.62
2022-10-17T20:36:36.975Z,14.38
2022-10-17T20:39:07.290Z,15.25
2022-10-17T20:41:36.570Z,14.79
2022-10-17T20:44:03.202Z,15.42
2022-10-17T20:46:37.365Z,15.13
2022-10-17T20:49:06.540Z,15.35
2022-10-17T20:51:36.195Z,14.65
2022-10-17T20:54:03.765Z,14.67
2022-10-17T20:56:36.186Z,15.21
2022-10-17T20:59:09.679Z,15.20
2022-10-17T21:01:36.529Z,14.34
2022-10-17T21:04:27.122Z,15.13
2022-10-17T21:06:52.157Z,14.47
2022-10-17T21:09:21.874Z,15.03
2022-10-17T21:11:55.087Z,14.83
2022-10-17T21:14:25.477Z,14.92
2022-10-17T21:16:52.343Z,13.72
2022-10-17T21:19:19.178Z,13.67
2022-10-17T21:21:48.688Z,14.45
2022-10-17T21:24:18.110Z,14.49
2022-10-17T21:26:46.003Z,14.48
2022-10-17T21:29:15.615Z,13.55
2022-10-17T21:31:46.537Z,14.69
2022-10-17T21:34:17.590Z,12.94
2022-10-17T21:36:47.418Z,14.59
2022-10-17T21:39:19.688Z,14.60
2022-10-17T21:41:46.410Z,14.57
2022-10-17T21:44:22.086Z,14.46
2022-10-17T21:46:49.812Z,14.01
2022-10-17T21:49:19.415Z,14.50
2022-10-17T21:51:47.617Z,14.29
2022-10-17T21:54:15.037Z,14.20
2022-10-17T21:56:46.934Z,14.40
2022-10-17T21:59:16.146Z,14.08
2022-10-17T22:01:47.124Z,14.38
2022-10-17T22:04:16.853Z,13.21
2022-10-17T22:06:45.066Z,14.36
2022-10-17T22:09:18.339Z,14.05
2022-10-17T22:11:47.305Z,14.02
2022-10-17T22:14:19.591Z,14.28
2022-10-17T22:16:46.578Z,14.27
2022-10-17T22:19:20.705Z,14.13
2022-10-17T22:21:54.477Z,13.84
2022-10-17T22:26:56.051Z,14.10
2022-10-17T22:29:24.899Z,13.48
2022-10-17T22:31:51.651Z,13.46
2022-10-17T22:34:23.178Z,13.54
2022-10-17T22:36:50.062Z,13.31
2022-10-17T22:39:16.891Z,13.56
2022-10-17T22:41:43.628Z,13.23
2022-10-17T22:44:10.801Z,13.81
2022-10-17T22:46:37.541Z,12.31
2022-10-17T22:49:04.280Z,13.84
2022-10-17T22:51:31.006Z,13.83
2022-10-17T22:53:57.695Z,12.77
2022-10-17T22:56:24.398Z,13.23
2022-10-17T22:58:51.560Z,13.82
2022-10-17T23:01:24.378Z,13.83
2022-10-17T23:03:52.142Z,11.57
2022-10-17T23:06:21.780Z,13.19
2022-10-17T23:08:49.035Z,12.64
2022-10-17T23:11:18.107Z,13.74
2022-10-17T23:13:45.814Z,11.95
2022-10-17T23:16:15.138Z,13.36
2022-10-17T23:18:44.255Z,13.68
2022-10-17T23:21:13.166Z,13.33
2022-10-17T23:23:39.858Z,12.86
2022-10-17T23:26:12.071Z,13.61
2022-10-17T23:28:39.282Z,13.58
2022-10-17T23:31:19.263Z,12.33
2022-10-17T23:33:47.469Z,13.57
2022-10-17T23:36:20.686Z,13.58
2022-10-17T23:38:48.130Z,13.56
2022-10-17T23:41:17.590Z,13.53
2022-10-17T23:43:46.541Z,13.54
2022-10-17T23:46:13.286Z,12.91
2022-10-17T23:48:40.435Z,13.51
2022-10-17T23:51:10.203Z,12.58
2022-10-17T23:53:40.608Z,13.47
2022-10-17T23:56:11.278Z,13.28
2022-10-17T23:58:38.836Z,12.90
